Terminal Aerodrome Forecast
Issued by NWS

Home | Current Version | Previous Version | Text Only | Print | Product List | Glossary On
Versions: 1 2 3 4 5 6 7 8 9 10 11 12 13 14 15
000
FTUS43 KGRR 281700
TAFMKG
TAF
KMKG 281740Z 2818/2918 VRB05KT P6SM SKC
     FM290600 20010KT P6SM BKN150
     FM291200 19015G22KT P6SM BKN100
     FM291700 19020G32KT P6SM -SHRA OVC050=

USA.gov is the U.S. government's official web portal to all federal, state and local government web resources and services.